createdAt,value
2023-02-17T00:01:21.710Z,13.20
2023-02-17T00:03:50.181Z,13.20
2023-02-17T00:06:21.182Z,13.20
2023-02-17T00:08:49.054Z,13.20
2023-02-17T00:11:16.960Z,13.20
2023-02-17T00:13:44.232Z,13.10
2023-02-17T00:16:23.446Z,13.10
2023-02-17T00:19:00.280Z,13.10
2023-02-17T00:21:31.961Z,13.10
2023-02-17T00:23:59.426Z,13.10
2023-02-17T00:26:26.253Z,13.10
2023-02-17T00:28:53.258Z,13.10
2023-02-17T00:31:23.437Z,13.10
2023-02-17T00:33:50.528Z,13.10
2023-02-17T00:36:20.016Z,13.10
2023-02-17T00:38:48.741Z,13.10
2023-02-17T00:41:18.280Z,13.10
2023-02-17T00:43:46.357Z,13.10
2023-02-17T00:46:13.435Z,13.10
2023-02-17T00:48:41.535Z,13.10
2023-02-17T00:51:09.536Z,13.10
2023-02-17T00:53:36.696Z,13.10
2023-02-17T00:56:04.405Z,13.10
2023-02-17T00:58:31.385Z,13.10
2023-02-17T01:00:58.836Z,13.10
2023-02-17T01:03:27.217Z,13.10
2023-02-17T01:05:55.568Z,13.00
2023-02-17T01:08:24.372Z,13.10
2023-02-17T01:10:52.660Z,13.10
2023-02-17T01:13:20.140Z,13.10
2023-02-17T01:15:51.434Z,13.10
2023-02-17T01:18:21.662Z,13.10
2023-02-17T01:20:48.603Z,13.10
2023-02-17T01:23:18.734Z,13.10
2023-02-17T01:25:49.026Z,13.10
2023-02-17T01:28:20.676Z,13.20
2023-02-17T01:30:49.088Z,13.10
2023-02-17T01:33:16.096Z,13.10
2023-02-17T01:35:43.223Z,13.30
2023-02-17T01:38:10.054Z,13.10
2023-02-17T01:40:36.995Z,13.10
2023-02-17T01:43:03.875Z,13.10
2023-02-17T01:45:45.705Z,13.10
2023-02-17T01:48:18.572Z,13.10
2023-02-17T01:50:54.068Z,13.10
2023-02-17T01:53:29.532Z,13.40
2023-02-17T01:55:57.044Z,13.10
2023-02-17T01:58:26.972Z,13.10
2023-02-17T02:00:59.218Z,13.10
2023-02-17T02:03:28.278Z,13.10
2023-02-17T02:05:55.998Z,13.10
2023-02-17T02:08:22.827Z,13.10
2023-02-17T02:10:49.608Z,13.10
2023-02-17T02:13:16.651Z,13.20
2023-02-17T02:16:25.172Z,13.00
2023-02-17T02:19:04.652Z,13.10
2023-02-17T02:22:13.513Z,13.10
2023-02-17T02:25:13.783Z,13.10
2023-02-17T02:28:22.774Z,13.10
2023-02-17T02:31:15.891Z,13.10
2023-02-17T02:33:59.523Z,13.50
2023-02-17T02:36:35.243Z,13.00
2023-02-17T02:39:15.947Z,13.00
2023-02-17T02:41:53.311Z,13.00
2023-02-17T02:44:21.779Z,13.00
2023-02-17T02:47:24.416Z,13.00
2023-02-17T02:49:51.304Z,12.90
2023-02-17T02:52:36.197Z,13.00
2023-02-17T02:55:31.096Z,12.90
2023-02-17T02:58:30.481Z,12.90
2023-02-17T03:01:06.788Z,12.90
2023-02-17T03:04:08.464Z,12.90
2023-02-17T03:07:01.673Z,13.20
2023-02-17T03:09:29.924Z,12.90
2023-02-17T03:11:58.716Z,12.90
2023-02-17T03:14:28.368Z,12.90
2023-02-17T03:16:55.404Z,12.90
2023-02-17T03:19:25.500Z,12.90
2023-02-17T03:22:28.868Z,12.90
2023-02-17T03:24:55.586Z,12.90
2023-02-17T03:27:22.318Z,13.00
2023-02-17T03:29:49.196Z,13.00
2023-02-17T03:32:16.017Z,13.00
2023-02-17T03:34:42.764Z,13.00
2023-02-17T03:37:09.528Z,13.00
2023-02-17T03:39:36.952Z,13.00
2023-02-17T03:42:03.756Z,13.00
2023-02-17T03:44:30.592Z,13.10
2023-02-17T03:46:57.387Z,13.00
2023-02-17T03:49:24.193Z,13.10
2023-02-17T03:51:51.320Z,13.10
2023-02-17T03:54:18.049Z,13.10
2023-02-17T03:56:44.969Z,13.10
2023-02-17T03:59:11.707Z,13.10
2023-02-17T04:01:38.550Z,13.10
2023-02-17T04:04:05.475Z,13.10
2023-02-17T04:06:32.366Z,13.30
2023-02-17T04:08:59.136Z,13.10
2023-02-17T04:11:26.203Z,13.10
2023-02-17T04:13:52.972Z,13.10
2023-02-17T04:16:19.752Z,13.10
2023-02-17T04:18:46.514Z,13.00
2023-02-17T04:21:13.264Z,13.10
2023-02-17T04:23:40.130Z,13.00
2023-02-17T04:26:09.000Z,13.00
2023-02-17T04:28:39.850Z,13.00
2023-02-17T04:31:06.802Z,13.40
2023-02-17T04:33:34.500Z,13.00
2023-02-17T04:36:01.827Z,13.00
2023-02-17T04:38:32.049Z,13.00
2023-02-17T04:41:00.483Z,13.00
2023-02-17T04:43:28.117Z,13.00
2023-02-17T04:45:55.441Z,13.00
2023-02-17T04:48:22.894Z,13.00
2023-02-17T04:50:49.804Z,13.00
2023-02-17T04:53:16.994Z,13.00
2023-02-17T04:55:44.054Z,12.90
2023-02-17T04:58:10.994Z,13.00
2023-02-17T05:00:38.003Z,13.00
2023-02-17T05:03:05.142Z,13.00
2023-02-17T05:05:32.071Z,13.00
2023-02-17T05:07:58.827Z,13.00
2023-02-17T05:10:25.662Z,13.10
2023-02-17T05:12:52.574Z,13.10
2023-02-17T05:15:20.632Z,13.10
2023-02-17T05:17:47.362Z,13.10
2023-02-17T05:20:14.495Z,13.20
2023-02-17T05:22:41.392Z,13.20
2023-02-17T05:25:08.456Z,13.20
2023-02-17T05:27:35.383Z,13.20
2023-02-17T05:30:02.406Z,13.20
2023-02-17T05:32:29.243Z,13.30
2023-02-17T05:34:55.991Z,13.30
2023-02-17T05:37:22.821Z,13.30
2023-02-17T05:39:49.617Z,13.30
2023-02-17T05:42:16.432Z,13.30
2023-02-17T05:44:43.192Z,13.40
2023-02-17T05:47:09.976Z,13.40
2023-02-17T05:49:36.736Z,13.40
2023-02-17T05:52:03.734Z,13.40
2023-02-17T05:54:30.543Z,13.40
2023-02-17T05:56:57.298Z,13.70
2023-02-17T05:59:24.448Z,13.40
2023-02-17T06:01:51.203Z,13.50
2023-02-17T06:04:17.977Z,13.50
2023-02-17T06:06:44.814Z,13.50
2023-02-17T06:09:11.520Z,13.50
2023-02-17T06:11:38.582Z,13.50
2023-02-17T06:14:05.331Z,13.50
2023-02-17T06:16:32.114Z,13.50
2023-02-17T06:19:00.144Z,13.60
2023-02-17T06:21:26.863Z,13.60
2023-02-17T06:23:53.665Z,13.50
2023-02-17T06:26:20.526Z,13.50
2023-02-17T06:28:47.415Z,13.60
2023-02-17T06:31:14.492Z,13.60
2023-02-17T06:33:41.308Z,13.60
2023-02-17T06:36:08.584Z,13.50
2023-02-17T06:38:35.493Z,13.50
2023-02-17T06:41:02.319Z,13.90
2023-02-17T06:43:29.025Z,13.50
2023-02-17T06:45:55.902Z,13.60
2023-02-17T06:48:22.702Z,13.50
2023-02-17T06:50:50.290Z,13.60
2023-02-17T06:53:17.050Z,13.60
2023-02-17T06:55:44.855Z,13.50
2023-02-17T06:58:11.596Z,13.60
2023-02-17T07:00:38.730Z,13.60
2023-02-17T07:03:05.728Z,13.60
2023-02-17T07:05:36.388Z,13.60
2023-02-17T07:08:04.498Z,13.60
2023-02-17T07:10:31.958Z,13.60
2023-02-17T07:12:58.925Z,13.60
2023-02-17T07:27:10.892Z,13.70
2023-02-17T07:30:41.933Z,13.70
2023-02-17T07:54:34.676Z,13.50
2023-02-17T07:57:22.915Z,14.20
2023-02-17T08:00:10.822Z,13.80
2023-02-17T08:02:52.166Z,14.30
2023-02-17T08:05:19.133Z,14.10
2023-02-17T08:07:46.110Z,14.30
2023-02-17T08:10:32.222Z,14.30
2023-02-17T08:13:18.117Z,14.30
2023-02-17T08:16:01.024Z,14.20
2023-02-17T08:18:38.416Z,14.00
2023-02-17T08:21:27.613Z,13.80
2023-02-17T08:24:00.449Z,14.00
2023-02-17T08:26:27.312Z,14.60
2023-02-17T08:28:54.027Z,14.50
2023-02-17T08:31:32.968Z,14.10
2023-02-17T08:34:07.114Z,14.20
2023-02-17T08:36:37.296Z,14.20
2023-02-17T08:39:10.122Z,14.30
2023-02-17T08:41:39.292Z,14.30
2023-02-17T08:44:14.225Z,14.40
2023-02-17T08:46:41.418Z,14.40
2023-02-17T08:49:08.761Z,14.50
2023-02-17T08:51:36.740Z,14.60
2023-02-17T08:54:06.350Z,14.60
2023-02-17T08:56:34.326Z,14.70
2023-02-17T08:59:01.429Z,14.80
2023-02-17T09:01:28.426Z,14.80
2023-02-17T09:03:57.321Z,15.30
2023-02-17T09:06:24.753Z,15.00
2023-02-17T09:08:51.494Z,15.30
2023-02-17T09:11:20.797Z,15.10
2023-02-17T09:13:47.589Z,15.20
2023-02-17T09:16:14.707Z,15.30
2023-02-17T09:18:41.614Z,15.30
2023-02-17T09:21:14.086Z,15.50
2023-02-17T09:23:41.338Z,15.50
2023-02-17T09:26:12.693Z,15.60
2023-02-17T09:28:40.049Z,15.70
2023-02-17T09:31:23.627Z,15.90
2023-02-17T09:33:51.277Z,16.10
2023-02-17T09:36:26.498Z,16.20
2023-02-17T09:38:54.224Z,16.40
2023-02-17T09:41:51.796Z,16.60
2023-02-17T09:44:35.420Z,17.10
2023-02-17T09:47:20.590Z,16.90
2023-02-17T09:50:12.075Z,17.20
2023-02-17T09:53:11.156Z,17.30
2023-02-17T09:55:47.840Z,17.50
2023-02-17T09:58:23.844Z,17.50
2023-02-17T10:01:04.601Z,17.80
2023-02-17T10:04:13.258Z,18.10
2023-02-17T10:06:46.061Z,18.50
2023-02-17T10:09:34.370Z,18.90
2023-02-17T10:12:14.251Z,19.30
2023-02-17T10:15:04.244Z,19.50
2023-02-17T10:17:40.449Z,19.80
2023-02-17T10:20:17.584Z,20.20
2023-02-17T10:22:52.749Z,20.50
2023-02-17T10:25:38.122Z,20.80
2023-02-17T10:28:22.799Z,21.20
2023-02-17T10:31:02.178Z,21.20
2023-02-17T10:33:56.982Z,21.40
2023-02-17T10:36:53.516Z,21.50
2023-02-17T10:39:49.162Z,21.60
2023-02-17T10:42:32.889Z,21.60
2023-02-17T10:45:51.204Z,21.70
2023-02-17T10:48:24.646Z,21.80
2023-02-17T10:50:53.819Z,21.80
2023-02-17T10:53:30.079Z,21.90
2023-02-17T10:56:14.499Z,21.90
2023-02-17T10:58:56.098Z,22.00
2023-02-17T11:01:26.232Z,22.10
2023-02-17T11:04:10.650Z,22.10
2023-02-17T11:06:48.948Z,22.10
2023-02-17T11:09:21.732Z,22.10
2023-02-17T11:11:59.029Z,21.90
2023-02-17T11:14:33.109Z,22.20
2023-02-17T11:17:12.413Z,21.60
2023-02-17T11:19:39.201Z,21.50
2023-02-17T11:22:38.550Z,21.50
2023-02-17T11:25:24.251Z,21.30
2023-02-17T11:28:04.183Z,21.10
2023-02-17T11:30:34.832Z,21.00
2023-02-17T11:33:16.423Z,20.80
2023-02-17T11:35:58.678Z,20.70
2023-02-17T11:38:32.960Z,20.60
2023-02-17T11:41:04.470Z,20.40
2023-02-17T11:43:33.078Z,20.20
2023-02-17T11:46:12.750Z,20.10
2023-02-17T11:49:04.006Z,20.00
2023-02-17T11:51:39.559Z,19.90
2023-02-17T11:54:45.769Z,19.80
2023-02-17T11:57:40.700Z,19.70
2023-02-17T12:00:20.625Z,19.70
2023-02-17T12:03:36.453Z,19.70
2023-02-17T12:06:20.964Z,19.70
2023-02-17T12:08:59.349Z,19.70
2023-02-17T12:11:37.215Z,19.80
2023-02-17T12:14:25.242Z,19.80
2023-02-17T12:17:21.982Z,20.10
2023-02-17T12:20:24.046Z,20.00
2023-02-17T12:23:24.560Z,20.10
2023-02-17T12:26:12.663Z,20.50
2023-02-17T12:29:02.310Z,20.20
2023-02-17T12:32:05.947Z,20.20
2023-02-17T12:34:46.290Z,20.20
2023-02-17T12:37:21.729Z,20.20
2023-02-17T12:40:06.636Z,19.90
2023-02-17T12:42:53.728Z,20.10
2023-02-17T12:45:27.749Z,20.10
2023-02-17T12:48:06.707Z,20.20
2023-02-17T12:50:43.418Z,20.40
2023-02-17T12:53:29.085Z,20.30
2023-02-17T12:56:04.853Z,20.40
2023-02-17T12:58:33.375Z,20.40
2023-02-17T13:01:18.387Z,20.40
2023-02-17T13:03:46.123Z,20.40
2023-02-17T13:06:36.702Z,20.40
2023-02-17T13:09:15.155Z,20.30
2023-02-17T13:11:41.986Z,20.30
2023-02-17T13:14:57.245Z,20.20
2023-02-17T13:17:35.388Z,20.10
2023-02-17T13:20:15.107Z,20.00
2023-02-17T13:23:28.296Z,20.00
2023-02-17T13:26:25.997Z,19.90
2023-02-17T13:29:07.900Z,19.90
2023-02-17T13:31:53.834Z,19.90
2023-02-17T13:34:42.253Z,19.80
2023-02-17T13:37:35.321Z,19.80
2023-02-17T13:40:24.085Z,19.80
2023-02-17T13:43:08.970Z,19.80
2023-02-17T13:46:04.606Z,19.80
2023-02-17T13:48:34.858Z,19.70
2023-02-17T13:51:07.716Z,19.70
2023-02-17T13:53:51.539Z,19.70
2023-02-17T13:56:28.421Z,19.70
2023-02-17T13:59:07.094Z,19.60
2023-02-17T14:01:40.580Z,19.50
2023-02-17T14:04:26.943Z,19.50
2023-02-17T14:06:57.382Z,19.50
2023-02-17T14:09:32.180Z,19.40
2023-02-17T14:12:03.575Z,19.40
2023-02-17T14:14:38.155Z,19.20
2023-02-17T14:17:26.787Z,19.30
2023-02-17T14:19:53.563Z,19.20
2023-02-17T14:22:35.358Z,19.00
2023-02-17T14:25:14.092Z,19.10
2023-02-17T14:27:47.585Z,19.10
2023-02-17T14:30:45.837Z,19.00
2023-02-17T14:33:16.069Z,19.00
2023-02-17T14:35:54.650Z,18.90
2023-02-17T14:38:37.247Z,18.90
2023-02-17T14:41:05.863Z,18.80
2023-02-17T14:43:33.067Z,18.80
2023-02-17T14:45:59.952Z,18.80
2023-02-17T14:48:28.003Z,18.70
2023-02-17T14:50:57.169Z,18.70
2023-02-17T14:53:29.527Z,18.50
2023-02-17T14:56:04.649Z,18.60
2023-02-17T14:58:32.094Z,18.60
2023-02-17T15:01:00.285Z,18.50
2023-02-17T15:03:27.871Z,18.60
2023-02-17T15:05:58.619Z,18.30
2023-02-17T15:08:41.643Z,18.50
2023-02-17T15:11:27.885Z,18.40
2023-02-17T15:14:24.874Z,18.60
2023-02-17T15:16:55.125Z,18.30
2023-02-17T15:22:44.400Z,18.20
2023-02-17T15:25:19.176Z,18.10
2023-02-17T15:27:46.779Z,18.00
2023-02-17T15:30:18.161Z,17.90
2023-02-17T15:32:46.612Z,17.80
2023-02-17T15:35:20.039Z,18.20
2023-02-17T15:37:53.721Z,17.60
2023-02-17T15:40:27.448Z,17.60
2023-02-17T15:42:57.711Z,17.50
2023-02-17T15:45:40.611Z,17.40
2023-02-17T15:54:12.950Z,16.90
2023-02-17T16:00:20.228Z,17.00
2023-02-17T16:13:20.917Z,16.60
2023-02-17T16:37:14.146Z,16.30
2023-02-17T16:40:02.340Z,16.20
2023-02-17T16:42:46.254Z,16.60
2023-02-17T16:45:47.653Z,16.00
2023-02-17T16:48:28.191Z,15.80
2023-02-17T16:51:12.255Z,16.20
2023-02-17T16:53:53.896Z,15.50
2023-02-17T16:56:41.539Z,15.50
2023-02-17T16:59:21.377Z,15.90
2023-02-17T17:01:51.197Z,15.50
2023-02-17T17:04:18.268Z,15.40
2023-02-17T17:06:52.098Z,15.90
2023-02-17T17:09:28.704Z,15.30
2023-02-17T17:11:56.109Z,15.20
2023-02-17T17:17:21.786Z,14.90
2023-02-17T17:20:00.129Z,15.00
2023-02-17T17:22:36.444Z,14.90
2023-02-17T17:28:39.198Z,15.10
2023-02-17T18:25:31.888Z,14.20
2023-02-17T18:28:36.006Z,14.50
2023-02-17T20:29:38.162Z,13.80
2023-02-17T20:33:33.188Z,13.50
2023-02-17T20:36:26.314Z,13.70
2023-02-17T21:01:45.116Z,13.70
2023-02-17T21:18:23.804Z,13.70
2023-02-17T21:22:45.678Z,14.20
2023-02-17T21:25:10.452Z,13.70
2023-02-17T21:27:37.742Z,13.70
2023-02-17T21:30:13.327Z,13.40
2023-02-17T21:32:41.417Z,13.60
2023-02-17T21:35:11.814Z,13.20
2023-02-17T21:37:43.182Z,13.70
2023-02-17T21:40:11.338Z,14.10
2023-02-17T21:42:57.860Z,13.70
2023-02-17T21:45:25.717Z,13.70
2023-02-17T21:47:52.735Z,13.60
2023-02-17T21:50:21.255Z,14.20
2023-02-17T21:52:48.184Z,13.70
2023-02-17T21:55:14.956Z,13.70
2023-02-17T21:57:41.711Z,13.70
2023-02-17T22:00:09.140Z,13.80
2023-02-17T22:02:36.607Z,13.70
2023-02-17T22:05:04.080Z,14.10
2023-02-17T22:07:31.086Z,13.70
2023-02-17T22:09:59.859Z,13.70
2023-02-17T22:12:27.329Z,13.70
2023-02-17T22:14:54.043Z,13.70
2023-02-17T22:17:20.811Z,13.70
2023-02-17T22:19:47.586Z,13.70
2023-02-17T22:22:14.341Z,13.70
2023-02-17T22:24:41.079Z,13.70
2023-02-17T22:27:07.885Z,13.90
2023-02-17T22:29:34.625Z,13.70
2023-02-17T22:32:01.500Z,13.70
2023-02-17T22:34:37.232Z,13.70
2023-02-17T22:37:07.196Z,13.70
2023-02-17T22:39:35.643Z,13.60
2023-02-17T22:42:11.496Z,13.60
2023-02-17T22:44:38.589Z,13.60
2023-02-17T22:47:05.827Z,13.80
2023-02-17T22:49:33.073Z,13.60
2023-02-17T22:52:02.864Z,13.60
2023-02-17T22:55:08.493Z,13.60
2023-02-17T23:01:43.870Z,13.60
2023-02-17T23:04:36.947Z,13.70
2023-02-17T23:15:55.200Z,13.60
2023-02-17T23:22:22.638Z,13.50
2023-02-17T23:25:04.055Z,12.90
